Time;durP1;ratioP1;P1;durP2;ratioP2;P2;SDS_P1;SDS_P2;PMS_P1;PMS_P2;Temp;Humidity;BMP_temperature;BMP_pressure;BME280_temperature;BME280_humidity;BME280_pressure;Samples;Min_cycle;Max_cycle;Signal;HPM_P1;HPM_P2
2023/05/03 00:02:25;;;;;;;16.80;11.02;;;;;;;15.72;73.74;99423.69;4344439;33;33614;-82
2023/05/03 00:04:53;;;;;;;14.85;10.40;;;;;;;15.59;74.62;99420.25;4341909;33;34681;-81
2023/05/03 00:07:21;;;;;;;15.35;12.02;;;;;;;15.75;73.70;99416.72;4330387;33;34417;-84
2023/05/03 00:09:49;;;;;;;12.93;10.85;;;;;;;15.37;75.48;99418.56;4345346;32;34616;-82
2023/05/03 00:12:17;;;;;;;15.13;11.43;;;;;;;15.51;74.91;99425.50;4342623;33;33194;-81
2023/05/03 00:14:45;;;;;;;12.70;11.10;;;;;;;15.49;74.77;99416.81;4346372;33;34851;-82
2023/05/03 00:17:13;;;;;;;15.13;11.85;;;;;;;15.45;74.86;99422.88;4344679;32;32634;-81
2023/05/03 00:19:41;;;;;;;15.15;12.32;;;;;;;15.05;77.26;99430.81;4333962;33;33609;-82
2023/05/03 00:22:08;;;;;;;14.75;12.25;;;;;;;14.93;78.08;99428.22;4346181;33;33798;-82
2023/05/03 00:24:36;;;;;;;14.55;11.70;;;;;;;15.07;77.84;99421.22;4346399;33;34989;-81
2023/05/03 00:27:04;;;;;;;13.13;11.73;;;;;;;15.40;75.91;99419.41;4345796;33;34925;-82
2023/05/03 00:29:31;;;;;;;14.20;11.00;;;;;;;15.45;75.52;99416.78;4344866;33;34767;-82
2023/05/03 00:31:59;;;;;;;15.13;12.10;;;;;;;15.54;75.05;99417.66;4330159;33;33746;-80
2023/05/03 00:34:27;;;;;;;13.70;10.95;;;;;;;15.21;76.83;99417.72;4346358;33;33678;-81
2023/05/03 00:36:54;;;;;;;13.52;11.32;;;;;;;15.00;77.59;99421.22;4344668;32;33597;-83
2023/05/03 00:39:21;;;;;;;17.20;12.48;;;;;;;15.57;75.16;99415.03;4346311;33;33806;-84
2023/05/03 00:41:49;;;;;;;13.95;12.35;;;;;;;15.37;76.11;99426.41;4344885;32;33250;-85
2023/05/03 00:44:16;;;;;;;13.62;12.20;;;;;;;15.46;75.75;99423.78;4344473;33;34747;-84
2023/05/03 00:46:44;;;;;;;12.65;10.95;;;;;;;15.21;76.96;99420.34;4345108;33;33711;-82
2023/05/03 00:49:12;;;;;;;15.10;12.02;;;;;;;15.61;74.90;99420.22;4345081;33;34001;-82
2023/05/03 00:51:40;;;;;;;15.70;12.30;;;;;;;15.52;75.06;99432.44;4343598;33;33425;-84
2023/05/03 00:54:08;;;;;;;12.98;11.60;;;;;;;15.64;74.69;99433.28;4330591;33;33600;-81
2023/05/03 00:56:40;;;;;;;14.05;12.15;;;;;;;15.29;75.92;99434.25;4331474;33;34931;-83
2023/05/03 00:59:18;;;;;;;14.13;11.43;;;;;;;15.27;76.34;99436.87;4321597;33;33315;-85
2023/05/03 01:01:50;;;;;;;14.25;10.60;;;;;;;15.26;76.30;99439.47;4345122;33;33702;-82
2023/05/03 01:04:19;;;;;;;13.13;11.38;;;;;;;15.70;74.19;99438.53;4346313;33;34862;-84
2023/05/03 01:06:54;;;;;;;15.30;12.07;;;;;;;15.40;75.40;99448.16;4345784;33;33691;-82
2023/05/03 01:09:38;;;;;;;13.25;11.85;;;;;;;15.63;74.63;99436.78;4332532;33;34632;-83
2023/05/03 01:12:11;;;;;;;12.90;11.40;;;;;;;15.27;75.72;99449.06;4333428;33;33518;-81
2023/05/03 01:14:45;;;;;;;13.85;10.93;;;;;;;15.65;74.47;99442.88;4343978;33;32305;-81
2023/05/03 01:17:14;;;;;;;14.07;11.80;;;;;;;15.64;74.19;99448.97;4346005;33;34205;-83
2023/05/03 01:19:43;;;;;;;13.02;10.93;;;;;;;15.18;76.55;99460.37;4320091;33;35294;-80
2023/05/03 01:22:26;;;;;;;14.25;11.85;;;;;;;15.33;75.90;99449.91;4332582;33;34746;-82
2023/05/03 01:25:06;;;;;;;14.45;10.60;;;;;;;15.70;74.46;99449.00;4320554;33;34011;-82
2023/05/03 01:27:35;;;;;;;12.63;9.90;;;;;;;15.64;74.41;99449.81;4333084;33;33927;-82
2023/05/03 01:30:07;;;;;;;11.32;10.02;;;;;;;16.08;72.67;99446.22;4332963;33;34646;-82
2023/05/03 01:33:10;;;;;;;13.40;10.40;;;;;;;16.00;72.72;99442.75;4332386;33;33532;-82
2023/05/03 01:35:49;;;;;;;11.35;9.48;;;;;;;16.10;72.27;99443.56;4345805;33;34181;-82
2023/05/03 01:38:17;;;;;;;13.73;9.75;;;;;;;16.26;71.56;99445.25;4332829;33;33971;-82
2023/05/03 01:40:52;;;;;;;12.32;10.25;;;;;;;16.23;71.73;99443.50;4332846;33;33863;-81
2023/05/03 01:43:22;;;;;;;11.15;9.95;;;;;;;16.11;72.05;99440.09;4332129;33;32759;-81
2023/05/03 01:45:49;;;;;;;11.85;10.23;;;;;;;16.32;71.20;99437.34;4330831;33;33693;-81
2023/05/03 01:48:18;;;;;;;13.88;9.15;;;;;;;16.49;70.36;99438.13;4331271;33;33848;-82
2023/05/03 01:50:45;;;;;;;11.80;9.35;;;;;;;16.59;69.82;99438.91;4329907;33;34793;-81
2023/05/03 01:53:13;;;;;;;10.65;9.35;;;;;;;16.54;69.89;99431.09;4345111;33;33033;-82
2023/05/03 01:55:42;;;;;;;11.40;9.40;;;;;;;16.70;69.51;99431.84;4343925;32;34028;-82
2023/05/03 01:58:11;;;;;;;13.73;9.05;;;;;;;16.59;69.81;99431.03;4331634;33;33014;-83
2023/05/03 02:00:39;;;;;;;11.35;9.00;;;;;;;16.87;68.88;99430.88;4345446;33;33675;-82
2023/05/03 02:03:06;;;;;;;11.07;8.80;;;;;;;16.92;68.25;99431.69;4344490;33;33426;-83
2023/05/03 02:05:34;;;;;;;13.90;9.10;;;;;;;16.76;68.81;99430.97;4344172;33;34211;-83
2023/05/03 02:08:02;;;;;;;11.57;9.07;;;;;;;16.78;68.76;99422.22;4344861;33;34958;-83
2023/05/03 02:10:29;;;;;;;10.25;8.48;;;;;;;17.00;68.24;99425.50;4342791;32;34030;-83
2023/05/03 02:12:57;;;;;;;11.32;8.57;;;;;;;17.19;67.35;99420.09;4345102;33;33657;-83
2023/05/03 02:15:25;;;;;;;12.05;8.90;;;;;;;17.02;67.71;99412.41;4344842;33;34186;-80
2023/05/03 02:17:53;;;;;;;12.37;8.50;;;;;;;16.98;67.92;99421.19;4344610;33;34974;-86
2023/05/03 02:20:20;;;;;;;10.52;8.20;;;;;;;17.29;66.91;99411.25;4345044;32;34599;-82
2023/05/03 02:22:48;;;;;;;12.50;8.60;;;;;;;17.15;67.06;99413.16;4345319;33;33372;-82
2023/05/03 02:25:16;;;;;;;10.10;8.38;;;;;;;17.11;67.20;99416.69;4344803;33;34042;-86
2023/05/03 02:27:44;;;;;;;10.82;8.20;;;;;;;17.12;67.37;99411.44;4344209;33;34020;-82
2023/05/03 02:30:12;;;;;;;9.93;8.63;;;;;;;17.41;66.39;99410.25;4344727;33;34619;-83
2023/05/03 02:32:42;;;;;;;9.15;8.15;;;;;;;17.42;66.35;99405.00;4323533;33;33529;-82
2023/05/03 02:35:10;;;;;;;9.50;8.23;;;;;;;17.39;65.96;99410.28;4343920;32;33733;-84
2023/05/03 02:37:37;;;;;;;8.85;7.90;;;;;;;17.32;66.03;99398.13;4342902;32;34248;-84
2023/05/03 02:40:08;;;;;;;11.30;8.10;;;;;;;17.35;65.88;99400.72;4343765;33;33838;-82
2023/05/03 02:42:35;;;;;;;10.23;8.57;;;;;;;17.27;66.25;99402.53;4331311;33;33446;-81
2023/05/03 02:45:04;;;;;;;11.12;8.07;;;;;;;17.49;65.65;99401.41;4344781;33;33715;-82
2023/05/03 02:47:32;;;;;;;8.52;6.72;;;;;;;17.40;65.68;99396.28;4343559;33;34910;-81
2023/05/03 02:49:59;;;;;;;9.98;7.57;;;;;;;17.31;66.10;99390.28;4331291;33;35161;-85
2023/05/03 02:52:30;;;;;;;9.95;8.18;;;;;;;17.43;66.01;99393.66;4343895;32;33079;-82
2023/05/03 02:54:57;;;;;;;10.60;7.72;;;;;;;17.40;65.82;99387.56;4344732;33;34063;-82
2023/05/03 02:57:25;;;;;;;11.88;8.43;;;;;;;17.49;65.77;99388.31;4343685;33;34089;-82
2023/05/03 02:59:53;;;;;;;10.75;8.20;;;;;;;17.29;66.51;99392.91;4345202;33;34190;-86
2023/05/03 03:02:21;;;;;;;10.35;7.62;;;;;;;17.55;65.84;99392.63;4343505;33;33436;-85
2023/05/03 03:04:49;;;;;;;11.93;8.32;;;;;;;17.34;66.32;99388.50;4345395;33;34400;-81
2023/05/03 03:07:16;;;;;;;13.38;7.95;;;;;;;17.27;66.65;99392.94;4344052;32;34975;-82
2023/05/03 03:09:44;;;;;;;12.95;8.63;;;;;;;17.51;66.14;99388.31;4332381;33;33466;-82
2023/05/03 03:12:12;;;;;;;10.93;8.05;;;;;;;17.22;66.73;99388.63;4343788;33;34257;-83
2023/05/03 03:14:40;;;;;;;9.43;7.95;;;;;;;17.44;66.02;99392.75;4331234;33;34673;-82
2023/05/03 03:17:09;;;;;;;10.50;8.70;;;;;;;17.61;65.38;99386.44;4330976;33;33840;-86
2023/05/03 03:19:36;;;;;;;10.25;8.75;;;;;;;17.48;65.79;99394.44;4345167;33;33842;-86
2023/05/03 03:22:03;;;;;;;13.73;9.27;;;;;;;17.40;65.94;99383.19;4344275;33;34383;-82
2023/05/03 03:24:32;;;;;;;11.82;9.20;;;;;;;17.31;66.15;99388.50;4331026;33;33883;-81
2023/05/03 03:27:00;;;;;;;11.23;8.38;;;;;;;17.50;65.91;99395.31;4345940;32;34213;-81
2023/05/03 03:29:30;;;;;;;11.30;8.43;;;;;;;17.61;65.39;99392.53;4344096;33;33643;-83
2023/05/03 03:31:59;;;;;;;10.75;8.95;;;;;;;17.36;65.96;99396.34;4343959;32;32771;-83
2023/05/03 03:34:27;;;;;;;12.32;9.10;;;;;;;17.45;65.70;99394.47;4319790;33;32510;-84
2023/05/03 03:36:56;;;;;;;14.87;10.32;;;;;;;17.44;65.77;99395.38;4330271;33;33921;-83
2023/05/03 03:39:24;;;;;;;10.80;8.45;;;;;;;17.58;65.53;99394.31;4331960;33;33194;-85
2023/05/03 03:41:52;;;;;;;12.65;9.43;;;;;;;17.43;65.75;99393.66;4329866;33;33498;-85
2023/05/03 03:44:19;;;;;;;13.23;9.93;;;;;;;17.35;66.05;99390.25;4343954;33;35046;-86
2023/05/03 03:46:49;;;;;;;11.95;9.60;;;;;;;17.12;66.76;99397.47;4329588;33;32424;-81
2023/05/03 03:49:17;;;;;;;11.82;10.02;;;;;;;16.83;67.76;99398.63;4330165;33;33049;-82
2023/05/03 03:51:44;;;;;;;13.05;9.00;;;;;;;16.99;67.47;99402.81;4344478;33;33658;-82
2023/05/03 03:54:13;;;;;;;12.00;8.50;;;;;;;17.19;66.93;99402.62;4344075;33;34780;-82
2023/05/03 03:56:41;;;;;;;12.30;8.23;;;;;;;17.13;66.99;99407.06;4330681;33;34365;-82
2023/05/03 03:59:09;;;;;;;11.95;8.15;;;;;;;16.57;67.72;99414.50;4342878;33;33932;-82
2023/05/03 04:01:37;;;;;;;11.63;8.68;;;;;;;16.54;67.57;99418.00;4344178;33;33618;-83
2023/05/03 04:04:05;;;;;;;10.27;8.55;;;;;;;16.87;67.20;99425.66;4342303;33;34326;-81
2023/05/03 04:06:33;;;;;;;9.73;8.48;;;;;;;17.07;66.78;99423.69;4330932;33;35108;-82
2023/05/03 04:09:02;;;;;;;11.63;8.55;;;;;;;17.15;66.55;99423.63;4343042;32;33446;-83
2023/05/03 04:11:30;;;;;;;11.75;8.80;;;;;;;17.19;66.81;99422.72;4343832;33;33761;-85
2023/05/03 04:13:58;;;;;;;16.42;8.77;;;;;;;17.24;66.68;99424.41;4344140;33;33890;-82
2023/05/03 04:16:25;;;;;;;11.77;8.18;;;;;;;17.47;66.16;99429.41;4343757;32;33704;-82
2023/05/03 04:18:55;;;;;;;11.45;8.70;;;;;;;17.44;66.12;99433.81;4343959;33;34502;-83
2023/05/03 04:21:23;;;;;;;12.20;8.98;;;;;;;17.18;66.80;99434.09;4344524;33;34060;-83
2023/05/03 04:23:51;;;;;;;17.17;9.80;;;;;;;17.32;66.42;99437.44;4343151;33;34597;-83
2023/05/03 04:26:23;;;;;;;11.43;8.45;;;;;;;17.03;67.12;99440.34;4344336;33;34936;-80
2023/05/03 04:28:59;;;;;;;12.00;8.60;;;;;;;17.01;66.82;99445.59;4328845;33;34679;-83
2023/05/03 04:31:27;;;;;;;12.98;8.75;;;;;;;17.06;66.65;99449.94;4343234;32;34185;-84
2023/05/03 04:33:56;;;;;;;15.70;8.93;;;;;;;16.96;67.05;99452.59;4343092;33;34656;-86
2023/05/03 04:36:25;;;;;;;11.07;9.05;;;;;;;16.77;67.29;99458.88;4344310;33;34646;-85
2023/05/03 04:38:53;;;;;;;13.45;9.30;;;;;;;16.67;67.70;99454.59;4343696;33;34088;-82
2023/05/03 04:41:23;;;;;;;15.10;10.63;;;;;;;16.67;68.01;99457.19;4344415;33;33356;-82
2023/05/03 04:43:51;;;;;;;12.10;9.85;;;;;;;16.61;68.54;99467.69;4344159;32;34453;-84
2023/05/03 04:46:19;;;;;;;12.73;9.63;;;;;;;16.59;68.49;99464.22;4341671;32;33777;-81
2023/05/03 04:48:46;;;;;;;12.60;9.10;;;;;;;16.61;68.44;99465.09;4342020;33;33457;-83
2023/05/03 04:51:14;;;;;;;16.37;10.35;;;;;;;16.70;68.39;99470.25;4329597;33;32102;-83
2023/05/03 04:53:42;;;;;;;14.43;9.60;;;;;;;16.75;68.76;99468.50;4343438;33;33910;-80
2023/05/03 04:56:10;;;;;;;16.70;10.57;;;;;;;16.84;68.23;99472.81;4345068;33;34165;-81
2023/05/03 04:58:38;;;;;;;12.90;10.13;;;;;;;16.89;68.45;99476.25;4346491;33;34470;-82
2023/05/03 05:01:06;;;;;;;13.00;10.15;;;;;;;16.79;68.88;99483.31;4346132;33;34151;-82
2023/05/03 05:03:34;;;;;;;13.43;10.60;;;;;;;16.31;70.57;99490.56;4333029;33;33790;-83
2023/05/03 05:06:02;;;;;;;14.75;10.63;;;;;;;16.26;71.09;99487.09;4346054;33;34026;-83
2023/05/03 05:08:30;;;;;;;13.70;11.02;;;;;;;16.34;71.00;99485.31;4345710;33;33789;-82
2023/05/03 05:10:57;;;;;;;14.30;11.00;;;;;;;16.45;70.54;99493.09;4345846;33;33534;-83
2023/05/03 05:13:25;;;;;;;13.93;10.95;;;;;;;16.49;70.51;99490.47;4346084;33;33858;-85
2023/05/03 05:15:53;;;;;;;12.52;11.02;;;;;;;16.60;70.35;99489.53;4336375;32;33917;-82
2023/05/03 05:18:21;;;;;;;16.12;11.85;;;;;;;16.38;71.77;99491.41;4344643;32;34373;-82
2023/05/03 05:20:49;;;;;;;13.50;11.40;;;;;;;16.64;70.65;99491.25;4333305;33;34337;-83
2023/05/03 05:23:18;;;;;;;14.73;11.45;;;;;;;16.65;70.82;99487.75;4346747;33;33771;-82
2023/05/03 05:25:45;;;;;;;14.82;10.38;;;;;;;16.44;72.06;99491.34;4346643;33;34984;-82
2023/05/03 05:28:14;;;;;;;15.02;11.55;;;;;;;16.23;72.89;99490.59;4346283;33;33948;-82
2023/05/03 05:30:43;;;;;;;14.05;11.63;;;;;;;15.99;73.98;99488.97;4333490;33;32993;-83
2023/05/03 05:33:11;;;;;;;15.65;10.98;;;;;;;16.14;73.17;99498.50;4332464;33;33966;-83
2023/05/03 05:35:39;;;;;;;13.77;10.68;;;;;;;16.34;72.22;99501.00;4346543;33;34220;-82
2023/05/03 05:38:07;;;;;;;16.37;11.60;;;;;;;16.17;73.15;99501.06;4345086;33;33682;-82
2023/05/03 05:40:35;;;;;;;11.88;10.02;;;;;;;16.35;73.27;99499.25;4345911;33;33509;-83
2023/05/03 05:43:02;;;;;;;14.52;10.63;;;;;;;16.15;73.66;99496.75;4345072;33;34613;-82
2023/05/03 05:45:33;;;;;;;18.12;10.88;;;;;;;16.54;72.46;99503.50;4344349;33;33756;-82
2023/05/03 05:48:01;;;;;;;13.95;10.48;;;;;;;15.98;74.17;99504.66;4346391;33;33785;-83
2023/05/03 05:50:30;;;;;;;13.55;10.75;;;;;;;16.36;73.18;99506.22;4331967;33;33719;-83
2023/05/03 05:52:58;;;;;;;13.73;11.10;;;;;;;16.47;72.94;99513.13;4346081;33;33702;-82
2023/05/03 05:55:26;;;;;;;15.10;10.88;;;;;;;16.40;72.92;99516.69;4342441;33;33577;-82
2023/05/03 05:57:54;;;;;;;16.27;10.48;;;;;;;16.34;73.62;99511.47;4331666;33;33801;-83
2023/05/03 06:00:25;;;;;;;14.05;10.27;;;;;;;16.41;73.19;99515.81;4336501;32;32473;-82
2023/05/03 06:02:52;;;;;;;12.48;10.15;;;;;;;16.13;73.68;99516.78;4346973;32;34792;-82
2023/05/03 06:05:21;;;;;;;14.00;10.00;;;;;;;15.97;73.84;99522.09;4345186;33;33877;-82
2023/05/03 06:07:48;;;;;;;12.32;9.82;;;;;;;16.06;72.45;99523.78;4345565;33;33739;-82
2023/05/03 06:10:16;;;;;;;11.77;9.65;;;;;;;15.85;73.58;99527.38;4345126;32;33644;-82
2023/05/03 06:12:44;;;;;;;12.48;9.13;;;;;;;16.01;72.51;99531.66;4356962;32;34493;-82
2023/05/03 06:15:12;;;;;;;13.00;9.73;;;;;;;16.62;70.48;99542.72;4331857;33;33846;-82
2023/05/03 06:17:41;;;;;;;10.55;8.02;;;;;;;16.50;71.33;99548.91;4345835;33;34986;-82
2023/05/03 06:20:10;;;;;;;10.70;8.82;;;;;;;16.64;70.02;99540.97;4345594;33;34456;-84
2023/05/03 06:22:39;;;;;;;10.93;8.57;;;;;;;16.75;70.15;99544.44;4346196;33;33981;-82
2023/05/03 06:25:08;;;;;;;11.27;8.32;;;;;;;16.89;69.43;99532.09;4345843;33;34641;-82
2023/05/03 06:27:37;;;;;;;13.02;8.90;;;;;;;17.11;69.05;99537.19;4346142;33;33890;-83
2023/05/03 06:30:05;;;;;;;12.45;9.13;;;;;;;17.36;67.71;99543.97;4346284;33;33831;-84
2023/05/03 06:32:33;;;;;;;12.00;9.13;;;;;;;16.87;69.86;99554.81;4345930;33;34284;-83
2023/05/03 06:35:01;;;;;;;12.27;8.35;;;;;;;16.89;70.00;99553.06;4346013;33;34914;-82
2023/05/03 06:37:29;;;;;;;11.70;8.35;;;;;;;17.22;69.12;99558.94;4345525;33;34072;-82
2023/05/03 06:39:56;;;;;;;12.23;9.07;;;;;;;17.46;67.04;99566.63;4330964;33;34211;-82
2023/05/03 06:42:24;;;;;;;11.23;8.90;;;;;;;17.26;68.59;99563.28;4330928;33;34036;-82
2023/05/03 06:45:01;;;;;;;12.43;9.60;;;;;;;17.22;69.15;99572.03;4331181;33;33867;-82
2023/05/03 06:47:29;;;;;;;11.07;7.82;;;;;;;17.32;69.29;99572.84;4334928;33;33662;-82
2023/05/03 06:49:57;;;;;;;13.68;8.77;;;;;;;16.57;71.61;99566.31;4346051;33;34222;-82
2023/05/03 06:52:25;;;;;;;12.95;9.15;;;;;;;16.88;70.03;99564.41;4346288;33;32960;-82
2023/05/03 06:54:53;;;;;;;11.52;9.05;;;;;;;17.01;70.64;99563.47;4320247;33;33849;-82
2023/05/03 06:57:21;;;;;;;12.82;9.55;;;;;;;16.99;70.40;99570.44;4345594;33;33632;-82
2023/05/03 06:59:49;;;;;;;11.75;10.13;;;;;;;16.79;71.44;99569.72;4345652;33;34391;-82
2023/05/03 07:02:17;;;;;;;11.00;9.43;;;;;;;16.84;72.16;99570.56;4332549;33;34174;-82
2023/05/03 07:04:44;;;;;;;14.27;9.88;;;;;;;17.36;69.53;99566.69;4332469;33;34074;-82
2023/05/03 07:07:12;;;;;;;14.63;9.68;;;;;;;17.44;70.02;99567.50;4345127;33;34838;-82
2023/05/03 07:09:40;;;;;;;12.00;9.38;;;;;;;17.36;69.38;99572.81;4345821;33;33627;-83
2023/05/03 07:12:10;;;;;;;12.18;9.43;;;;;;;17.58;69.15;99580.47;4345959;33;34005;-83
2023/05/03 07:14:39;;;;;;;12.10;9.38;;;;;;;17.51;69.78;99567.44;4345364;33;34094;-82
2023/05/03 07:17:07;;;;;;;11.95;8.55;;;;;;;17.79;68.24;99561.94;4332198;33;33456;-82
2023/05/03 07:19:36;;;;;;;11.80;9.02;;;;;;;17.88;67.10;99569.75;4331397;33;33482;-82
2023/05/03 07:22:03;;;;;;;13.45;9.88;;;;;;;17.83;67.13;99563.66;4332499;33;33779;-83
2023/05/03 07:24:31;;;;;;;11.60;8.80;;;;;;;17.91;66.72;99561.81;4345198;33;33998;-82
2023/05/03 07:26:58;;;;;;;11.95;8.20;;;;;;;17.51;69.48;99570.06;4345855;33;33165;-82
2023/05/03 07:29:26;;;;;;;10.93;8.15;;;;;;;17.99;67.74;99565.25;4345517;33;33649;-82
2023/05/03 07:31:54;;;;;;;13.88;7.85;;;;;;;17.97;66.60;99564.38;4345434;33;34082;-82
2023/05/03 07:34:21;;;;;;;11.45;8.18;;;;;;;18.20;64.73;99560.63;4332241;33;34097;-82
2023/05/03 07:36:49;;;;;;;10.88;7.43;;;;;;;17.83;66.18;99558.41;4319712;33;34067;-81
2023/05/03 07:39:17;;;;;;;10.75;8.38;;;;;;;18.46;64.19;99561.16;4345337;33;33040;-83
2023/05/03 07:41:45;;;;;;;12.20;8.80;;;;;;;18.24;65.30;99567.56;4332092;33;34917;-82
2023/05/03 07:44:13;;;;;;;10.68;8.18;;;;;;;18.59;65.53;99563.62;4344852;33;34145;-82
2023/05/03 07:46:40;;;;;;;10.10;6.75;;;;;;;18.52;66.42;99556.72;4345547;33;33519;-82
2023/05/03 07:49:08;;;;;;;10.00;6.97;;;;;;;18.95;62.65;99557.91;4345487;33;32470;-83
2023/05/03 07:51:37;;;;;;;8.68;6.05;;;;;;;19.01;60.66;99561.31;4345175;33;33985;-84
2023/05/03 07:54:05;;;;;;;7.55;5.50;;;;;;;19.07;60.68;99555.97;4345356;33;34075;-83
2023/05/03 07:56:32;;;;;;;8.82;5.70;;;;;;;19.27;60.31;99559.13;4331978;33;34686;-82
2023/05/03 07:59:00;;;;;;;9.25;5.47;;;;;;;19.25;57.98;99558.31;4332022;33;33589;-81
2023/05/03 08:01:37;;;;;;;8.48;6.47;;;;;;;19.19;58.01;99558.41;4345168;33;34022;-86
2023/05/03 08:04:04;;;;;;;9.52;6.62;;;;;;;19.14;62.32;99562.88;4344947;33;34288;-82
2023/05/03 08:06:34;;;;;;;8.90;7.30;;;;;;;19.34;60.74;99566.03;4344876;33;33372;-81
2023/05/03 08:09:03;;;;;;;9.60;7.32;;;;;;;19.45;60.76;99574.63;4331653;33;34334;-81
2023/05/03 08:11:31;;;;;;;11.63;7.65;;;;;;;19.64;60.84;99575.19;4344800;33;33736;-82
2023/05/03 08:13:59;;;;;;;14.55;7.60;;;;;;;19.11;61.64;99573.44;4344997;33;33293;-81
2023/05/03 08:16:26;;;;;;;10.32;7.25;;;;;;;19.26;62.58;99578.44;4343739;33;34671;-82
2023/05/03 08:18:54;;;;;;;10.23;7.50;;;;;;;19.39;61.49;99579.97;4344411;33;34318;-82
2023/05/03 08:21:23;;;;;;;11.25;7.15;;;;;;;19.70;61.33;99576.88;4344637;33;33561;-82
2023/05/03 08:23:51;;;;;;;10.98;7.22;;;;;;;19.54;62.36;99572.72;4345105;33;35058;-82
2023/05/03 08:26:20;;;;;;;10.98;6.95;;;;;;;19.37;60.93;99576.50;4344265;33;34685;-82
2023/05/03 08:28:48;;;;;;;8.35;6.40;;;;;;;19.94;60.62;99567.66;4344815;33;33366;-82
2023/05/03 08:31:16;;;;;;;11.80;6.75;;;;;;;20.14;58.45;99575.16;4346466;33;33528;-81
2023/05/03 08:33:44;;;;;;;8.05;6.18;;;;;;;19.49;59.46;99582.47;4346590;33;34204;-84
2023/05/03 08:36:11;;;;;;;11.50;7.45;;;;;;;19.60;59.04;99577.88;4333007;33;34174;-86
2023/05/03 08:38:40;;;;;;;10.07;7.15;;;;;;;19.34;60.63;99578.31;4346629;33;33450;-85
2023/05/03 08:41:29;;;;;;;10.00;6.85;;;;;;;19.10;61.56;99571.69;4346008;33;34795;-82
2023/05/03 08:43:58;;;;;;;11.00;6.57;;;;;;;19.54;60.26;99572.72;4318785;33;34112;-83
2023/05/03 08:46:29;;;;;;;8.82;6.47;;;;;;;19.90;59.70;99579.13;4331766;33;34610;-83
2023/05/03 08:48:57;;;;;;;13.23;6.28;;;;;;;20.12;57.70;99576.97;4318772;33;34663;-82
2023/05/03 08:51:27;;;;;;;10.38;6.30;;;;;;;19.67;59.96;99579.53;4338223;33;34123;-82
2023/05/03 08:53:54;;;;;;;8.45;6.50;;;;;;;20.03;57.99;99582.37;4346551;33;34239;-83
2023/05/03 08:56:28;;;;;;;7.40;6.10;;;;;;;20.49;58.01;99581.47;4346660;33;34736;-83
2023/05/03 08:59:03;;;;;;;7.72;6.32;;;;;;;20.50;58.60;99583.25;4333045;33;34316;-83
2023/05/03 09:01:31;;;;;;;8.98;6.07;;;;;;;20.67;57.22;99586.38;4346514;33;33958;-82
2023/05/03 09:03:58;;;;;;;8.15;5.68;;;;;;;20.35;57.73;99594.94;4345039;33;34025;-82
2023/05/03 09:06:26;;;;;;;9.15;6.20;;;;;;;20.38;56.50;99582.56;4345251;33;34478;-82
2023/05/03 09:08:54;;;;;;;9.68;6.35;;;;;;;20.18;57.79;99582.09;4346438;33;34303;-83
2023/05/03 09:11:28;;;;;;;8.27;6.43;;;;;;;20.23;58.48;99579.34;4346324;33;34125;-82
2023/05/03 09:14:13;;;;;;;12.52;6.20;;;;;;;19.83;58.76;99586.25;4346466;33;34984;-82
2023/05/03 09:16:45;;;;;;;9.18;6.70;;;;;;;20.17;56.27;99583.00;4333316;33;33658;-82
2023/05/03 09:19:14;;;;;;;9.68;6.45;;;;;;;20.39;56.36;99584.31;4321230;33;32182;-83
2023/05/03 09:21:44;;;;;;;8.60;5.93;;;;;;;19.93;59.04;99589.59;4333147;33;33929;-82
2023/05/03 09:24:13;;;;;;;10.20;6.40;;;;;;;19.81;58.39;99588.06;4332877;33;34876;-82
2023/05/03 09:26:41;;;;;;;8.63;6.62;;;;;;;19.79;58.60;99588.97;4346379;33;34276;-83
2023/05/03 09:29:09;;;;;;;10.05;6.15;;;;;;;19.66;59.06;99585.69;4346495;33;33324;-82
2023/05/03 09:31:37;;;;;;;7.95;6.40;;;;;;;19.66;59.91;99588.31;4346318;33;34140;-83
2023/05/03 09:34:21;;;;;;;9.65;6.28;;;;;;;19.98;58.06;99579.00;4332726;33;34208;-82
2023/05/03 09:36:48;;;;;;;10.07;5.80;;;;;;;19.89;58.24;99585.31;4346060;32;34133;-84
2023/05/03 09:39:17;;;;;;;7.35;5.18;;;;;;;19.87;57.46;99581.81;4346347;33;34466;-82
2023/05/03 09:41:45;;;;;;;8.10;5.43;;;;;;;19.56;57.07;99584.97;4319916;33;33082;-82
2023/05/03 09:44:12;;;;;;;6.72;4.85;;;;;;;19.41;57.71;99588.72;4332662;33;33870;-82
2023/05/03 09:47:03;;;;;;;8.73;5.32;;;;;;;19.53;59.45;99581.50;4344873;33;34709;-87
2023/05/03 09:49:37;;;;;;;6.60;4.70;;;;;;;19.93;59.01;99579.94;4346099;33;33414;-82
2023/05/03 09:52:06;;;;;;;8.32;5.47;;;;;;;20.03;57.12;99572.72;4346159;33;33926;-82
2023/05/03 09:54:34;;;;;;;9.00;5.30;;;;;;;20.31;55.53;99578.34;4332727;33;34333;-82
2023/05/03 09:57:06;;;;;;;10.68;5.60;;;;;;;19.93;57.84;99579.09;4346118;33;34746;-82
2023/05/03 09:59:36;;;;;;;7.00;5.03;;;;;;;19.96;55.97;99584.25;4346174;33;34373;-82
2023/05/03 10:02:06;;;;;;;9.23;5.40;;;;;;;19.84;56.84;99581.87;4345990;33;34074;-82
2023/05/03 10:04:55;;;;;;;6.72;4.43;;;;;;;19.60;56.97;99577.88;4346144;33;34071;-86
2023/05/03 10:07:25;;;;;;;9.18;4.60;;;;;;;20.18;55.04;99577.69;4332669;33;34047;-82
2023/05/03 10:09:55;;;;;;;8.15;5.22;;;;;;;19.72;55.10;99582.94;4333100;33;33214;-82
2023/05/03 10:12:24;;;;;;;9.43;5.55;;;;;;;19.98;55.15;99579.00;4345836;33;34920;-82
2023/05/03 10:14:52;;;;;;;9.02;5.05;;;;;;;20.27;55.05;99576.66;4346408;33;33813;-86
2023/05/03 10:17:27;;;;;;;7.57;5.72;;;;;;;20.03;56.54;99578.00;4332522;33;34040;-81
2023/05/03 10:20:25;;;;;;;7.75;6.00;;;;;;;20.42;56.29;99576.34;4346285;33;33140;-82
2023/05/03 10:23:02;;;;;;;12.20;7.15;;;;;;;20.17;57.31;99580.38;4346070;33;33646;-82
2023/05/03 10:25:30;;;;;;;10.65;6.30;;;;;;;20.00;57.79;99574.53;4346252;33;33698;-87
2023/05/03 10:28:02;;;;;;;8.82;5.90;;;;;;;20.37;57.97;99583.44;4345882;33;33974;-82
2023/05/03 10:30:38;;;;;;;8.38;6.15;;;;;;;20.20;56.94;99572.41;4345588;33;33807;-82
2023/05/03 10:33:08;;;;;;;7.55;5.62;;;;;;;20.21;56.76;99573.28;4332732;33;33906;-86
2023/05/03 10:35:41;;;;;;;9.68;7.43;;;;;;;19.97;56.98;99567.59;4345656;33;34252;-82
2023/05/03 10:38:15;;;;;;;10.05;5.97;;;;;;;20.00;57.73;99564.91;4332494;33;33976;-81
2023/05/03 10:40:43;;;;;;;7.93;5.65;;;;;;;19.77;58.24;99574.97;4345843;33;33512;-82
2023/05/03 10:43:29;;;;;;;7.18;5.80;;;;;;;19.77;57.88;99565.31;4345511;33;34769;-80
2023/05/03 10:45:57;;;;;;;9.63;6.05;;;;;;;19.41;59.38;99564.19;4345772;33;34951;-82
2023/05/03 10:48:25;;;;;;;8.63;5.70;;;;;;;19.98;57.18;99552.66;4332339;33;34450;-82
2023/05/03 10:50:53;;;;;;;7.87;6.45;;;;;;;20.08;58.12;99556.88;4345467;33;34160;-81
2023/05/03 10:53:31;;;;;;;9.27;5.97;;;;;;;19.91;58.71;99555.41;4345750;33;34650;-81
2023/05/03 10:56:07;;;;;;;7.80;5.80;;;;;;;20.11;58.29;99560.28;4345868;33;34727;-81
2023/05/03 10:58:46;;;;;;;6.85;5.37;;;;;;;20.46;56.62;99556.09;4332562;33;33485;-82
2023/05/03 11:01:18;;;;;;;8.57;6.20;;;;;;;20.46;58.08;99556.09;4331982;33;33765;-82
2023/05/03 11:04:06;;;;;;;8.60;5.70;;;;;;;20.23;57.67;99559.19;4332341;33;33997;-82
2023/05/03 11:06:36;;;;;;;11.55;5.95;;;;;;;20.27;58.03;99550.34;4345650;33;35046;-81
2023/05/03 11:09:08;;;;;;;10.50;6.28;;;;;;;19.89;58.20;99559.00;4332383;33;34015;-86
2023/05/03 11:11:38;;;;;;;9.90;5.55;;;;;;;20.40;55.86;99561.47;4345678;33;33523;-82
2023/05/03 11:14:07;;;;;;;7.82;6.03;;;;;;;20.24;57.88;99558.28;4345527;33;34746;-82
2023/05/03 11:16:35;;;;;;;10.50;5.47;;;;;;;20.32;56.01;99552.88;4345577;33;35139;-88
2023/05/03 11:19:03;;;;;;;8.35;5.53;;;;;;;20.24;56.78;99560.91;4332371;33;33419;-82
2023/05/03 11:21:31;;;;;;;9.02;5.50;;;;;;;20.46;55.96;99561.34;4344410;33;34272;-82
2023/05/03 11:23:59;;;;;;;8.07;5.95;;;;;;;20.11;57.25;99559.41;4345636;33;33883;-87
2023/05/03 11:26:27;;;;;;;8.32;6.05;;;;;;;19.87;57.96;99564.25;4332475;33;33824;-81
2023/05/03 11:28:54;;;;;;;9.13;6.95;;;;;;;19.67;58.47;99561.13;4345272;33;34413;-81
2023/05/03 11:31:22;;;;;;;9.18;6.80;;;;;;;19.69;58.75;99556.69;4345087;33;33302;-82
2023/05/03 11:33:50;;;;;;;10.18;6.45;;;;;;;19.54;60.68;99556.94;4343087;32;33625;-83
2023/05/03 11:36:17;;;;;;;10.52;7.05;;;;;;;19.58;60.53;99559.47;4340029;32;35081;-80